Aviation Digital Data Service (ADDS)

Output produced by METARs form (2200 UTC 24 March 2019)
found at http://www.aviationweather.gov/metar/data/
 
VDSR 242130Z 06004KT 9000 SCT017 SCT050 26/25 Q1009
TAF VDSR 241700Z 2418/2512 07007KT 9999 SCT017 SCT040 
     TEMPO 2419/2423 5000 TSRA SCT015 FEW017CB SCT040
       
VDSV 242130Z VRB01KT 7000 -RA SCT015 FEW017CB BKN040 25/23 Q1010 CB:SW/NW
TAF VDSV 241700Z 2418/2512 13007KT 9999 SCT017 SCT040 
     TEMPO 2418/2423 SCT015 FEW017CB SCT040